Time,TemperatureF,DewpointF,PressureIn,WindDirection,WindDirectionDegrees,WindSpeedMPH,WindSpeedGustMPH,Humidity,HourlyPrecipIn,Conditions,Clouds,dailyrainin,SoftwareType,DateUTC
2013-01-16 00:03:00,25.0,20.0,-100.00,East,85,3.0,4.0,81,0.00,,,-99.99,,2013-01-16 05:03:00,
2013-01-16 00:12:00,25.0,19.0,-100.00,East,90,4.0,6.0,79,0.00,,,-99.99,,2013-01-16 05:12:00,
2013-01-16 00:22:00,25.0,19.0,-100.00,ENE,75,4.0,6.0,78,0.00,,,-99.99,,2013-01-16 05:22:00,
2013-01-16 00:32:00,24.0,19.0,-100.00,ENE,75,3.0,5.0,77,0.00,,,-99.99,,2013-01-16 05:32:00,
2013-01-16 00:42:00,24.0,19.0,-100.00,ENE,65,2.0,4.0,80,0.00,,,-99.99,,2013-01-16 05:42:00,
2013-01-16 00:53:00,24.0,19.0,-100.00,ENE,75,2.0,4.0,81,0.00,,,-99.99,,2013-01-16 05:53:00,
2013-01-16 01:03:00,24.0,19.0,-100.00,NE,50,2.0,3.0,81,0.00,,,-99.99,,2013-01-16 06:03:00,
2013-01-16 01:12:00,24.0,19.0,-100.00,ENE,70,2.0,3.0,81,0.00,,,-99.99,,2013-01-16 06:12:00,
2013-01-16 01:22:00,24.0,19.0,-100.00,ESE,105,1.0,3.0,81,0.00,,,-99.99,,2013-01-16 06:22:00,
2013-01-16 01:32:00,24.0,19.0,-100.00,ESE,115,2.0,3.0,80,0.00,,,-99.99,,2013-01-16 06:32:00,
2013-01-16 01:43:00,24.0,19.0,-100.00,ESE,115,2.0,3.0,80,0.00,,,-99.99,,2013-01-16 06:43:00,
2013-01-16 01:52:00,23.0,19.0,-100.00,East,85,2.0,3.0,82,0.00,,,-99.99,,2013-01-16 06:52:00,
2013-01-16 02:02:00,23.0,19.0,-100.00,ENE,60,2.0,3.0,84,0.00,,,-99.99,,2013-01-16 07:02:00,
2013-01-16 02:12:00,23.0,19.0,-100.00,ENE,60,2.0,3.0,84,0.00,,,-99.99,,2013-01-16 07:12:00,
2013-01-16 02:22:00,23.0,19.0,-100.00,NNE,30,1.0,3.0,84,0.00,,,-99.99,,2013-01-16 07:22:00,
2013-01-16 02:33:00,22.0,19.0,-100.00,North,350,4.0,5.0,86,0.00,,,-99.99,,2013-01-16 07:33:00,
2013-01-16 02:42:00,23.0,19.0,-100.00,North,355,2.0,4.0,87,0.00,,,-99.99,,2013-01-16 07:42:00,
2013-01-16 02:52:00,23.0,19.0,-100.00,North,5,0.0,4.0,85,0.00,,,-99.99,,2013-01-16 07:52:00,
2013-01-16 03:02:00,23.0,19.0,-100.00,North,5,0.0,1.0,85,0.00,,,-99.99,,2013-01-16 08:02:00,
2013-01-16 03:12:00,23.0,19.0,-100.00,NNE,20,0.0,2.0,86,0.00,,,-99.99,,2013-01-16 08:12:00,
2013-01-16 03:22:00,22.0,19.0,-100.00,NNW,340,1.0,1.0,86,0.00,,,-99.99,,2013-01-16 08:22:00,
2013-01-16 03:32:00,22.0,19.0,-100.00,NNW,335,2.0,3.0,89,0.00,,,-99.99,,2013-01-16 08:32:00,
2013-01-16 03:42:00,22.0,20.0,-100.00,NNE,20,0.0,3.0,89,0.00,,,-99.99,,2013-01-16 08:42:00,
2013-01-16 03:52:00,22.0,20.0,-100.00,North,5,0.0,2.0,89,0.00,,,-99.99,,2013-01-16 08:52:00,
2013-01-16 04:02:00,22.0,20.0,-100.00,North,355,1.0,3.0,89,0.00,,,-99.99,,2013-01-16 09:02:00,
2013-01-16 04:12:00,22.0,20.0,-100.00,NNW,335,2.0,3.0,90,0.00,,,-99.99,,2013-01-16 09:12:00,
2013-01-16 04:22:00,22.0,20.0,-100.00,NW,320,1.0,2.0,91,0.00,,,-99.99,,2013-01-16 09:22:00,
2013-01-16 04:32:00,22.0,20.0,-100.00,WNW,290,0.0,0.0,91,0.00,,,-99.99,,2013-01-16 09:32:00,
2013-01-16 04:42:00,23.0,20.0,-100.00,SW,230,0.0,0.0,90,0.00,,,-99.99,,2013-01-16 09:42:00,
2013-01-16 04:52:00,23.0,20.0,-100.00,SW,230,0.0,0.0,90,0.00,,,-99.99,,2013-01-16 09:52:00,
2013-01-16 05:02:00,23.0,20.0,-100.00,SW,230,0.0,0.0,89,0.00,,,-99.99,,2013-01-16 10:02:00,
2013-01-16 05:12:00,23.0,20.0,-100.00,North,5,0.0,0.0,89,0.00,,,-99.99,,2013-01-16 10:12:00,
2013-01-16 05:22:00,23.0,20.0,-100.00,North,5,0.0,0.0,87,0.00,,,-99.99,,2013-01-16 10:22:00,
2013-01-16 05:32:00,23.0,20.0,-100.00,NNW,345,1.0,1.0,88,0.00,,,-99.99,,2013-01-16 10:32:00,
2013-01-16 05:42:00,23.0,20.0,-100.00,NW,315,0.0,2.0,89,0.00,,,-99.99,,2013-01-16 10:42:00,
2013-01-16 05:52:00,23.0,21.0,-100.00,NW,315,0.0,1.0,89,0.00,,,-99.99,,2013-01-16 10:52:00,
2013-01-16 06:02:00,23.0,21.0,-100.00,WNW,295,0.0,0.0,90,0.00,,,-99.99,,2013-01-16 11:02:00,
2013-01-16 06:12:00,23.0,21.0,-100.00,NNW,330,0.0,1.0,91,0.00,,,-99.99,,2013-01-16 11:12:00,
2013-01-16 06:22:00,23.0,21.0,-100.00,NW,315,0.0,2.0,91,0.00,,,-99.99,,2013-01-16 11:22:00,
2013-01-16 06:33:00,23.0,21.0,-100.00,WSW,255,0.0,1.0,93,0.00,,,-99.99,,2013-01-16 11:33:00,
2013-01-16 06:42:00,23.0,21.0,-100.00,West,280,1.0,2.0,94,0.00,,,-99.99,,2013-01-16 11:42:00,
2013-01-16 06:52:00,23.0,22.0,-100.00,SW,220,0.0,1.0,95,0.00,,,-99.99,,2013-01-16 11:52:00,
2013-01-16 07:03:00,23.0,22.0,-100.00,WSW,250,0.0,1.0,96,0.00,,,-99.99,,2013-01-16 12:03:00,
2013-01-16 07:13:00,23.0,22.0,-100.00,West,270,1.0,2.0,96,0.00,,,-99.99,,2013-01-16 12:13:00,
2013-01-16 07:22:00,23.0,22.0,-100.00,WSW,250,2.0,3.0,97,0.00,,,-99.99,,2013-01-16 12:22:00,
2013-01-16 07:33:00,23.0,-99.9,-100.00,WSW,245,1.0,2.0,-999,0.00,,,-99.99,,2013-01-16 12:33:00,
2013-01-16 07:43:00,23.0,-99.9,-100.00,SSW,210,0.0,2.0,-999,0.00,,,-99.99,,2013-01-16 12:43:00,
2013-01-16 07:53:00,23.0,22.0,-100.00,SW,215,0.0,1.0,97,0.00,,,-99.99,,2013-01-16 12:53:00,
2013-01-16 08:03:00,23.0,22.0,-100.00,SW,220,0.0,1.0,96,0.00,,,-99.99,,2013-01-16 13:03:00,
2013-01-16 08:12:00,22.0,22.0,-100.00,SW,220,1.0,1.0,95,0.00,,,-99.99,,2013-01-16 13:12:00,
2013-01-16 08:23:00,23.0,22.0,-100.00,SSW,210,1.0,3.0,96,0.00,,,-99.99,,2013-01-16 13:23:00,
2013-01-16 08:33:00,23.0,22.0,-100.00,South,175,1.0,2.0,95,0.00,,,-99.99,,2013-01-16 13:33:00,
2013-01-16 08:43:00,23.0,21.0,-100.00,WSW,245,1.0,3.0,94,0.00,,,-99.99,,2013-01-16 13:43:00,
2013-01-16 08:52:00,23.0,21.0,-100.00,WSW,245,2.0,4.0,92,0.00,,,-99.99,,2013-01-16 13:52:00,
2013-01-16 09:03:00,22.0,20.0,-100.00,WSW,255,2.0,4.0,92,0.00,,,-99.99,,2013-01-16 14:03:00,
2013-01-16 09:12:00,23.0,21.0,-100.00,WNW,285,2.0,3.0,93,0.00,,,-99.99,,2013-01-16 14:12:00,
2013-01-16 09:23:00,23.0,21.0,-100.00,West,265,4.0,5.0,91,0.00,,,-99.99,,2013-01-16 14:23:00,
2013-01-16 09:33:00,24.0,21.0,-100.00,West,275,5.0,7.0,90,0.00,,,-99.99,,2013-01-16 14:33:00,
2013-01-16 09:43:00,24.0,21.0,-100.00,West,260,7.0,9.0,89,0.00,,,-99.99,,2013-01-16 14:43:00,
2013-01-16 09:53:00,25.0,21.0,-100.00,West,260,6.0,9.0,86,0.00,,,-99.99,,2013-01-16 14:53:00,
2013-01-16 10:03:00,25.0,20.0,-100.00,WSW,240,7.0,11.0,82,0.00,,,-99.99,,2013-01-16 15:03:00,
2013-01-16 10:12:00,26.0,21.0,-100.00,WSW,250,9.0,12.0,82,0.00,,,-99.99,,2013-01-16 15:12:00,
2013-01-16 10:23:00,26.0,21.0,-100.00,West,265,11.0,13.0,81,0.00,,,-99.99,,2013-01-16 15:23:00,
2013-01-16 10:33:00,27.0,21.0,-100.00,West,270,11.0,16.0,79,0.00,,,-99.99,,2013-01-16 15:33:00,
2013-01-16 10:43:00,27.0,21.0,-100.00,West,265,12.0,17.0,78,0.00,,,-99.99,,2013-01-16 15:43:00,
2013-01-16 10:52:00,27.0,21.0,-100.00,WSW,250,10.0,17.0,77,0.00,,,-99.99,,2013-01-16 15:52:00,
2013-01-16 11:04:00,28.0,22.0,-100.00,West,265,9.0,16.0,78,0.00,,,-99.99,,2013-01-16 16:04:00,
2013-01-16 11:12:00,28.0,21.0,-100.00,WSW,250,12.0,16.0,74,0.00,,,-99.99,,2013-01-16 16:12:00,
2013-01-16 11:22:00,29.0,22.0,-100.00,West,270,14.0,19.0,74,0.00,,,-99.99,,2013-01-16 16:22:00,
2013-01-16 11:33:00,29.0,21.0,-100.00,West,270,12.0,18.0,73,0.00,,,-99.99,,2013-01-16 16:33:00,
2013-01-16 11:42:00,29.0,21.0,-100.00,West,260,12.0,16.0,70,0.00,,,-99.99,,2013-01-16 16:42:00,
2013-01-16 11:52:00,30.0,21.0,-100.00,West,265,11.0,16.0,69,0.00,,,-99.99,,2013-01-16 16:52:00,
2013-01-16 12:03:00,30.0,21.0,-100.00,West,260,12.0,16.0,68,0.00,,,-99.99,,2013-01-16 17:03:00,
2013-01-16 12:12:00,30.0,21.0,-100.00,West,265,12.0,17.0,67,0.00,,,-99.99,,2013-01-16 17:12:00,
2013-01-16 12:23:00,31.0,21.0,-100.00,West,260,11.0,15.0,67,0.00,,,-99.99,,2013-01-16 17:23:00,
2013-01-16 12:33:00,31.0,19.0,-100.00,West,280,10.0,16.0,59,0.00,,,-99.99,,2013-01-16 17:33:00,
2013-01-16 12:43:00,31.0,19.0,-100.00,West,260,12.0,17.0,60,0.00,,,-99.99,,2013-01-16 17:43:00,
2013-01-16 12:53:00,31.0,17.0,-100.00,WSW,255,12.0,17.0,55,0.00,,,-99.99,,2013-01-16 17:53:00,
2013-01-16 13:03:00,32.0,18.0,-100.00,WSW,250,12.0,18.0,55,0.00,,,-99.99,,2013-01-16 18:03:00,
2013-01-16 13:13:00,32.0,19.0,-100.00,WSW,245,12.0,16.0,56,0.00,,,-99.99,,2013-01-16 18:13:00,
2013-01-16 13:23:00,33.0,18.0,-100.00,SW,230,10.0,16.0,53,0.00,,,-99.99,,2013-01-16 18:23:00,
2013-01-16 13:33:00,33.0,18.0,-100.00,WSW,250,12.0,17.0,52,0.00,,,-99.99,,2013-01-16 18:33:00,
2013-01-16 13:42:00,34.0,17.0,-100.00,WSW,250,14.0,17.0,50,0.00,,,-99.99,,2013-01-16 18:42:00,
2013-01-16 13:53:00,34.0,16.0,-100.00,SW,230,15.0,20.0,47,0.00,,,-99.99,,2013-01-16 18:53:00,
2013-01-16 14:03:00,34.0,18.0,-100.00,WSW,240,12.0,21.0,51,0.00,,,-99.99,,2013-01-16 19:03:00,
2013-01-16 14:12:00,35.0,17.0,-100.00,SW,235,14.0,17.0,47,0.00,,,-99.99,,2013-01-16 19:12:00,
2013-01-16 14:23:00,35.0,17.0,-100.00,SW,230,13.0,20.0,47,0.00,,,-99.99,,2013-01-16 19:23:00,
2013-01-16 14:33:00,35.0,16.0,-100.00,SW,230,14.0,19.0,45,0.00,,,-99.99,,2013-01-16 19:33:00,
2013-01-16 14:43:00,35.0,18.0,-100.00,WSW,240,13.0,21.0,49,0.00,,,-99.99,,2013-01-16 19:43:00,
2013-01-16 14:52:00,35.0,17.0,-100.00,WSW,245,19.0,22.0,47,0.00,,,-99.99,,2013-01-16 19:52:00,
2013-01-16 15:03:00,36.0,18.0,-100.00,West,270,13.0,23.0,47,0.00,,,-99.99,,2013-01-16 20:03:00,
2013-01-16 15:12:00,35.0,17.0,-100.00,WSW,245,14.0,20.0,46,0.00,,,-99.99,,2013-01-16 20:12:00,
2013-01-16 15:23:00,35.0,18.0,-100.00,WSW,245,14.0,22.0,50,0.00,,,-99.99,,2013-01-16 20:23:00,
2013-01-16 15:33:00,35.0,17.0,-100.00,WSW,240,16.0,21.0,47,0.00,,,-99.99,,2013-01-16 20:33:00,
2013-01-16 15:42:00,35.0,17.0,-100.00,WSW,250,13.0,25.0,47,0.00,,,-99.99,,2013-01-16 20:42:00,
2013-01-16 15:53:00,35.0,18.0,-100.00,WSW,255,14.0,22.0,48,0.00,,,-99.99,,2013-01-16 20:53:00,
2013-01-16 16:03:00,35.0,19.0,-100.00,WSW,245,14.0,20.0,50,0.00,,,-99.99,,2013-01-16 21:03:00,
2013-01-16 16:12:00,35.0,17.0,-100.00,WSW,250,14.0,23.0,47,0.00,,,-99.99,,2013-01-16 21:12:00,
2013-01-16 16:22:00,35.0,18.0,-100.00,WSW,240,11.0,19.0,48,0.00,,,-99.99,,2013-01-16 21:22:00,
2013-01-16 16:33:00,35.0,18.0,-100.00,WSW,245,11.0,19.0,50,0.00,,,-99.99,,2013-01-16 21:33:00,
2013-01-16 16:43:00,35.0,18.0,-100.00,WSW,240,12.0,19.0,49,0.00,,,-99.99,,2013-01-16 21:43:00,
2013-01-16 16:52:00,35.0,19.0,-100.00,WSW,240,10.0,19.0,52,0.00,,,-99.99,,2013-01-16 21:52:00,
2013-01-16 17:03:00,35.0,18.0,-100.00,WSW,250,12.0,17.0,50,0.00,,,-99.99,,2013-01-16 22:03:00,
2013-01-16 17:12:00,34.0,18.0,-100.00,SW,225,15.0,20.0,51,0.00,,,-99.99,,2013-01-16 22:12:00,
2013-01-16 17:23:00,34.0,18.0,-100.00,SW,225,12.0,18.0,51,0.00,,,-99.99,,2013-01-16 22:23:00,
2013-01-16 17:33:00,34.0,19.0,-100.00,WSW,240,10.0,16.0,53,0.00,,,-99.99,,2013-01-16 22:33:00,
2013-01-16 17:43:00,33.0,18.0,-100.00,SW,230,13.0,19.0,52,0.00,,,-99.99,,2013-01-16 22:43:00,
2013-01-16 17:52:00,33.0,18.0,-100.00,SW,230,12.0,17.0,53,0.00,,,-99.99,,2013-01-16 22:52:00,
2013-01-16 18:03:00,33.0,18.0,-100.00,SW,230,12.0,17.0,53,0.00,,,-99.99,,2013-01-16 23:03:00,
2013-01-16 18:12:00,33.0,19.0,-100.00,SW,230,12.0,19.0,54,0.00,,,-99.99,,2013-01-16 23:12:00,
2013-01-16 18:23:00,33.0,19.0,-100.00,SW,230,12.0,18.0,55,0.00,,,-99.99,,2013-01-16 23:23:00,
2013-01-16 18:33:00,33.0,19.0,-100.00,WSW,240,13.0,20.0,54,0.00,,,-99.99,,2013-01-16 23:33:00,
2013-01-16 18:43:00,33.0,19.0,-100.00,SW,230,14.0,22.0,55,0.00,,,-99.99,,2013-01-16 23:43:00,
2013-01-16 18:52:00,33.0,19.0,-100.00,SW,225,14.0,21.0,54,0.00,,,-99.99,,2013-01-16 23:52:00,
2013-01-16 19:02:00,33.0,19.0,-100.00,SW,230,14.0,21.0,55,0.00,,,-99.99,,2013-01-17 00:02:00,
2013-01-16 19:12:00,33.0,19.0,-100.00,SW,230,14.0,21.0,56,0.00,,,-99.99,,2013-01-17 00:12:00,
2013-01-16 19:22:00,33.0,19.0,-100.00,SW,230,12.0,20.0,55,0.00,,,-99.99,,2013-01-17 00:22:00,
2013-01-16 19:32:00,33.0,19.0,-100.00,SW,235,14.0,21.0,56,0.00,,,-99.99,,2013-01-17 00:32:00,
2013-01-16 19:42:00,33.0,20.0,-100.00,SW,235,11.0,22.0,58,0.00,,,-99.99,,2013-01-17 00:42:00,
2013-01-16 19:52:00,33.0,20.0,-100.00,SW,235,11.0,22.0,58,0.00,,,-99.99,,2013-01-17 00:52:00,
2013-01-16 20:02:00,33.0,20.0,-100.00,SW,235,12.0,20.0,58,0.00,,,-99.99,,2013-01-17 01:02:00,
2013-01-16 20:12:00,33.0,20.0,-100.00,SW,235,12.0,20.0,58,0.00,,,-99.99,,2013-01-17 01:12:00,
2013-01-16 20:22:00,33.0,21.0,-100.00,WSW,245,12.0,19.0,61,0.00,,,-99.99,,2013-01-17 01:22:00,
2013-01-16 20:33:00,33.0,21.0,-100.00,WSW,250,12.0,17.0,61,0.00,,,-99.99,,2013-01-17 01:33:00,
2013-01-16 20:42:00,33.0,21.0,-100.00,WSW,240,12.0,20.0,63,0.00,,,-99.99,,2013-01-17 01:42:00,
2013-01-16 20:52:00,33.0,22.0,-100.00,WSW,245,11.0,19.0,63,0.00,,,-99.99,,2013-01-17 01:52:00,
2013-01-16 21:02:00,33.0,22.0,-100.00,West,260,14.0,18.0,64,0.00,,,-99.99,,2013-01-17 02:02:00,
2013-01-16 21:12:00,33.0,22.0,-100.00,West,260,14.0,18.0,64,0.00,,,-99.99,,2013-01-17 02:12:00,
2013-01-16 21:22:00,33.0,23.0,-100.00,West,265,17.0,22.0,67,0.00,,,-99.99,,2013-01-17 02:22:00,
2013-01-16 21:32:00,33.0,23.0,-100.00,West,260,11.0,22.0,68,0.00,,,-99.99,,2013-01-17 02:32:00,
2013-01-16 21:42:00,33.0,23.0,-100.00,West,260,11.0,22.0,68,0.00,,,-99.99,,2013-01-17 02:42:00,
2013-01-16 21:52:00,33.0,23.0,-100.00,West,260,11.0,22.0,68,0.00,,,-99.99,,2013-01-17 02:52:00,
2013-01-16 22:03:00,33.0,24.0,-100.00,West,260,17.0,25.0,69,0.00,,,-99.99,,2013-01-17 03:03:00,
2013-01-16 22:12:00,33.0,25.0,-100.00,West,265,14.0,22.0,72,0.00,,,-99.99,,2013-01-17 03:12:00,
2013-01-16 22:22:00,33.0,25.0,-100.00,West,265,17.0,25.0,74,0.00,,,-99.99,,2013-01-17 03:22:00,
2013-01-16 22:33:00,33.0,26.0,-100.00,West,265,14.0,25.0,75,0.00,,,-99.99,,2013-01-17 03:33:00,
2013-01-16 22:42:00,33.0,26.0,-100.00,West,265,14.0,19.0,75,0.00,,,-99.99,,2013-01-17 03:42:00,
2013-01-16 22:52:00,33.0,26.0,-100.00,West,260,17.0,21.0,75,0.00,,,-99.99,,2013-01-17 03:52:00,
2013-01-16 23:02:00,33.0,26.0,-100.00,West,270,13.0,19.0,75,0.00,,,-99.99,,2013-01-17 04:02:00,
2013-01-16 23:12:00,33.0,25.0,-100.00,West,265,18.0,22.0,74,0.00,,,-99.99,,2013-01-17 04:12:00,
2013-01-16 23:22:00,33.0,25.0,-100.00,West,280,15.0,21.0,74,0.00,,,-99.99,,2013-01-17 04:22:00,
2013-01-16 23:33:00,33.0,26.0,-100.00,West,280,14.0,24.0,74,0.00,,,-99.99,,2013-01-17 04:33:00,
2013-01-16 23:42:00,33.0,26.0,-100.00,West,270,15.0,20.0,74,0.00,,,-99.99,,2013-01-17 04:42:00,
2013-01-16 23:52:00,33.0,26.0,-100.00,West,265,14.0,21.0,73,0.00,,,-99.99,,2013-01-17 04:52:00,